• Join FlightAware (Why Join?)
  • Login
  • US Flag 
09:13AM EDT


 

Airport Tracker/Info


-or-


 

Live Flight TrackerFlight Track Log ✈ ASQ5368 ✈ 03-Sep-2013 ✈ KATL - KDAL

Flight Track Log - Related Links

Times and Time Zones

All times are in EDT time to prevent confusion due to time zone crossing. See the ASQ5368 flight status page for this flight to view local times or setup timezone preferences in your user account.

Time Position Orientation Groundspeed Altitude Reporting Facility
EDT Latitude Longitude Course Direction KTS MPH feet Rate Location/Type
08:57PM 33.6500 -84.4833 284° West 191 220 2,700  Level Atlanta TRACON
08:58PM 33.6667 -84.5667 284° West 261 300 4,200 2,100 Climbing Atlanta TRACON
08:59PM 33.6833 -84.6667 281° West 274 315 6,900 2,400 Climbing Atlanta TRACON
09:00PM 33.6833 -84.7667 270° West 275 316 9,300 1,680 Climbing Atlanta TRACON
09:01PM 33.6722 -84.8950 264° West 299 344 11,000 1,020 Climbing Atlanta Center
09:02PM 33.6653 -84.9972 265° West 323 372 11,800 720 Climbing Atlanta Center
09:03PM 33.6558 -85.1169 265° West 351 404 12,500 600 Climbing Atlanta Center
09:04PM 33.6486 -85.2417 266° West 378 435 13,100 600 Climbing Atlanta Center
09:05PM 33.6533 -85.3739 272° West 388 447 13,700 600 Climbing Atlanta Center
09:06PM 33.6561 -85.5064 271° West 394 453 14,300 780 Climbing Atlanta Center
09:07PM 33.6583 -85.6536 271° West 405 466 15,300 960 Climbing Atlanta Center
09:08PM 33.6608 -85.7858 271° West 405 466 16,300 900 Climbing Atlanta Center
09:09PM 33.6656 -85.8958 273° West 394 453 17,100 780 Climbing Atlanta Center
09:10PM 33.6569 -86.0328 266° West 394 453 17,900 720 Climbing Atlanta Center
09:11PM 33.6653 -86.1603 275° West 394 453 18,600 600 Climbing Atlanta Center
09:12PM 33.6631 -86.2950 269° West 399 459 19,100 480 Climbing Atlanta Center
09:13PM 33.6644 -86.4325 271° West 411 473 19,600 480 Climbing Atlanta Center
09:14PM 33.6681 -86.5722 272° West 411 473 20,100 540 Climbing Atlanta Center
09:15PM 33.6672 -86.7119 270° West 416 479 20,700 780 Climbing Atlanta Center
09:16PM 33.6683 -86.8467 271° West 416 479 21,700 960 Climbing Atlanta Center
09:17PM 33.6861 -86.9772 279° West 408 470 22,700 780 Climbing Atlanta Center
09:18PM 33.7144 -87.1031 285° West 395 455 23,300 480 Climbing Atlanta Center
09:20PM 33.7672 -87.3711 283° West 394 453 24,300 480 Climbing Memphis Center
09:21PM 33.7997 -87.5000 287° West 394 453 24,800 480 Climbing Memphis Center
09:22PM 33.8275 -87.6317 284° West 402 463 25,300 540 Climbing Memphis Center
09:23PM 33.8536 -87.7683 283° West 412 474 25,900 300 Climbing Memphis Center
09:24PM 33.8836 -87.9150 284° West 418 481 26,000  Climbing Memphis Center
09:25PM 33.9092 -88.0519 283° West 418 481 26,000  Level Memphis Center
09:26PM 33.9389 -88.1939 284° West 431 496 26,000  Level Memphis Center
09:27PM 33.9639 -88.3236 283° West 444 511 26,000  Level Memphis Center
09:28PM 33.9933 -88.4656 284° West 444 511 26,000  Level Memphis Center
09:29PM 34.0225 -88.6103 284° West 444 511 26,000  Level Memphis Center
09:30PM 34.0539 -88.7553 285° West 449 517 26,000  Level Memphis Center
09:31PM 34.0808 -88.9125 282° West 449 517 26,000  Level Memphis Center
09:32PM 34.1117 -89.0603 284° West 449 517 26,000  Level Memphis Center
09:33PM 34.1358 -89.1903 283° West 449 517 26,000  Level Memphis Center
09:34PM 34.1456 -89.3408 275° West 449 517 26,000  Level Memphis Center
09:35PM 34.1550 -89.4936 274° West 454 522 26,000  Level Memphis Center
09:36PM 34.1644 -89.6467 274° West 460 529 26,000  Level Memphis Center
09:37PM 34.1736 -89.8147 274° West 460 529 26,000  Level Memphis Center
09:38PM 34.1806 -89.9656 273° West 453 521 26,000  Level Memphis Center
09:39PM 34.1892 -90.1211 274° West 463 533 26,000  Level Memphis Center
09:40PM 34.1978 -90.2717 274° West 463 533 26,000  Level Memphis Center
09:41PM 34.2039 -90.4250 273° West 457 526 26,000  Level Memphis Center
09:42PM 34.2142 -90.5783 275° West 463 533 26,000  Level Memphis Center
09:43PM 34.2203 -90.7289 273° West 463 533 26,000  Level Memphis Center
09:44PM 34.2258 -90.8822 273° West 463 533 26,000  Level Memphis Center
09:45PM 34.2336 -91.0203 274° West 463 533 26,000  Level Memphis Center
09:46PM 34.2389 -91.1736 272° West 463 533 26,000  Level Memphis Center
09:47PM 34.2461 -91.3269 273° West 463 533 26,000  Level Memphis Center
09:48PM 34.2533 -91.4831 273° West 457 526 26,000  Level Memphis Center
09:49PM 34.2600 -91.6364 273° West 462 532 26,000  Level Memphis Center
09:50PM 34.2647 -91.7872 272° West 462 532 26,000  Level Memphis Center
09:51PM 34.2692 -91.9456 272° West 461 531 26,000  Level Memphis Center
09:52PM 34.2756 -92.0992 273° West 461 531 26,000  Level Memphis Center
09:53PM 34.2814 -92.2525 273° West 461 531 26,000  Level Memphis Center
09:54PM 34.2853 -92.4083 272° West 461 531 26,000  Level Memphis Center
09:55PM 34.2911 -92.5619 273° West 461 531 26,000  Level Memphis Center
09:56PM 34.2967 -92.7156 273° West 466 536 26,000  Level Memphis Center
09:57PM 34.3036 -92.8892 273° West 466 536 26,000  Level Memphis Center
09:58PM 34.3067 -93.0425 271° West 461 531 26,000  Level Memphis Center
09:59PM 34.3117 -93.1961 272° West 461 531 26,000  Level Memphis Center
10:00PM 34.3144 -93.3494 271° West 461 531 26,000  Level Memphis Center
10:01PM 34.3183 -93.4181 274° West 466 536 26,000  Level Fort Worth Center
10:02PM 34.3086 -93.5694 266° West 466 536 26,000  Level Fort Worth Center
10:03PM 34.2672 -93.7169 251° West 466 536 26,000  Level Fort Worth Center
10:04PM 34.2256 -93.8644 251° West 461 531 26,000  Level Fort Worth Center
10:05PM 34.1772 -94.0069 248° West 466 536 26,000  Level Fort Worth Center
10:06PM 34.1247 -94.1469 246° West 471 542 26,000  Level Fort Worth Center
10:07PM 34.0697 -94.2894 245° Southwest 466 536 26,000  Level Fort Worth Center
10:08PM 34.0147 -94.4292 245° Southwest 466 536 26,000  Level Fort Worth Center
10:09PM 33.9617 -94.5689 245° Southwest 466 536 26,000  Level Fort Worth Center
10:10PM 33.9064 -94.7106 245° Southwest 466 536 26,000  Level Fort Worth Center
10:11PM 33.8508 -94.8500 244° Southwest 471 542 26,000  Level Fort Worth Center
10:12PM 33.7972 -94.9889 245° Southwest 471 542 26,000  Level Fort Worth Center
10:13PM 33.7414 -95.1306 245° Southwest 471 542 26,000  Level Fort Worth Center
10:14PM 33.6856 -95.2717 245° Southwest 471 542 26,000 -840 Level Fort Worth Center
10:15PM 33.6314 -95.4103 245° Southwest 471 542 24,400 -2,100 Descending Fort Worth Center
10:16PM 33.5753 -95.5586 246° West 478 550 21,900 -2,700 Descending Fort Worth Center
10:17PM 33.5128 -95.7119 244° Southwest 469 540 19,000 -2,640 Descending Fort Worth Center
10:18PM 33.4664 -95.8297 245° Southwest 455 524 16,700 -2,520 Descending Fort Worth Center
10:19PM 33.4117 -95.9675 245° Southwest 427 491 14,000 -2,700 Descending Fort Worth Center
10:20PM 33.3628 -96.0878 244° Southwest 419 482 11,300 -1,920 Descending Fort Worth Center
10:21PM 33.3200 -96.1928 244° Southwest 375 432 10,200 -1,200 Descending Fort Worth Center
10:22PM 33.2856 -96.2803 245° Southwest 308 354 9,000 -600 Descending Fort Worth Center
10:23PM 33.2464 -96.3628 240° Southwest 293 337 9,000 -660 Level Fort Worth Center
10:24PM 33.1969 -96.4378 232° Southwest 288 331 7,700 -1,560 Descending Fort Worth Center
10:25PM 33.1411 -96.4956 221° Southwest 281 323 6,000 -1,380 Descending Fort Worth Center
10:26PM 33.0744 -96.5358 207° Southwest 276 318 5,000 -540 Descending Fort Worth Center
10:27PM 33.0058 -96.5786 208° Southwest 276 318 5,000 -780 Level Fort Worth Center
10:28PM 32.9436 -96.6139 205° Southwest 276 318 3,500 -1,020 Descending Fort Worth Center
10:29PM 32.8708 -96.6542 205° Southwest 276 318 3,000 -300 Descending Fort Worth Center
10:30PM 32.8208 -96.6792 203° Southwest 241 277 3,000 -360 Level Fort Worth Center
10:31PM 32.7856 -96.7414 236° Southwest 206 237 2,300 -600 Descending Fort Worth Center
10:32PM 32.7881 -96.7931 273° West 179 206 1,900 -720 Descending Fort Worth Center
10:33PM 32.8217 -96.8275 319° Northwest 152 175 900 -720 Descending Fort Worth Center
10:34PM 32.8364 -96.8744 290° West 147 169 500 -420 Descending Fort Worth Center
10:36PM 32.8471 -96.8518 61° Northeast  Level Estimated